createdAt,value
2023-05-24T00:00:55.909Z,13.43
2023-05-24T00:03:25.836Z,13.39
2023-05-24T00:05:54.101Z,13.33
2023-05-24T00:08:22.434Z,13.35
2023-05-24T00:10:50.761Z,13.36
2023-05-24T00:13:19.260Z,13.39
2023-05-24T00:15:47.500Z,13.35
2023-05-24T00:18:17.834Z,13.33
2023-05-24T00:20:48.229Z,13.37
2023-05-24T00:23:16.873Z,13.38
2023-05-24T00:25:45.266Z,13.37
2023-05-24T00:28:13.522Z,13.37
2023-05-24T00:30:42.023Z,13.39
2023-05-24T00:33:10.563Z,13.39
2023-05-24T00:35:38.969Z,13.39
2023-05-24T00:38:08.723Z,13.38
2023-05-24T00:40:37.049Z,13.38
2023-05-24T00:43:06.931Z,13.42
2023-05-24T00:45:35.479Z,13.44
2023-05-24T00:48:04.916Z,13.45
2023-05-24T00:50:33.274Z,13.45
2023-05-24T00:53:03.662Z,13.45
2023-05-24T00:55:35.502Z,13.44
2023-05-24T00:58:04.267Z,13.44
2023-05-24T01:00:34.027Z,13.44
2023-05-24T01:03:03.667Z,13.45
2023-05-24T01:05:31.974Z,13.45
2023-05-24T01:08:10.346Z,13.43
2023-05-24T01:10:45.066Z,13.41
2023-05-24T01:13:25.428Z,13.38
2023-05-24T01:16:01.917Z,13.33
2023-05-24T01:18:34.529Z,13.30
2023-05-24T01:21:18.268Z,13.26
2023-05-24T01:23:55.916Z,13.24
2023-05-24T01:26:39.208Z,13.24
2023-05-24T01:29:11.254Z,13.23
2023-05-24T01:31:40.284Z,13.22
2023-05-24T01:34:08.849Z,13.20
2023-05-24T01:36:37.142Z,13.19
2023-05-24T01:39:06.346Z,13.15
2023-05-24T01:41:41.367Z,13.10
2023-05-24T01:44:18.423Z,13.06
2023-05-24T01:46:51.313Z,13.05
2023-05-24T01:49:22.262Z,12.90
2023-05-24T01:51:56.480Z,12.98
2023-05-24T01:54:27.339Z,12.99
2023-05-24T01:56:58.731Z,13.04
2023-05-24T01:59:31.314Z,13.04
2023-05-24T02:01:59.680Z,13.00
2023-05-24T02:04:28.224Z,12.98
2023-05-24T02:06:56.489Z,12.95
2023-05-24T02:09:25.265Z,12.95
2023-05-24T02:11:53.489Z,12.94
2023-05-24T02:14:21.933Z,12.95
2023-05-24T02:16:52.794Z,12.96
2023-05-24T02:19:21.672Z,12.97
2023-05-24T02:21:50.151Z,12.94
2023-05-24T02:24:18.767Z,12.98
2023-05-24T02:26:47.231Z,12.94
2023-05-24T02:29:15.747Z,12.90
2023-05-24T02:31:44.138Z,12.90
2023-05-24T02:34:13.802Z,12.91
2023-05-24T02:36:42.737Z,12.92
2023-05-24T02:39:11.141Z,12.93
2023-05-24T02:41:39.430Z,12.89
2023-05-24T02:44:07.916Z,12.88
2023-05-24T02:46:36.421Z,12.85
2023-05-24T02:49:05.241Z,12.83
2023-05-24T02:51:35.001Z,12.81
2023-05-24T02:54:03.291Z,12.76
2023-05-24T02:56:31.684Z,12.75
2023-05-24T02:59:00.528Z,12.74
2023-05-24T03:01:31.096Z,12.74
2023-05-24T03:04:01.090Z,12.74
2023-05-24T03:06:29.889Z,12.72
2023-05-24T03:08:59.728Z,12.71
2023-05-24T03:11:28.239Z,12.69
2023-05-24T03:14:00.182Z,12.69
2023-05-24T03:16:28.866Z,12.70
2023-05-24T03:18:57.137Z,12.69
2023-05-24T03:21:25.701Z,12.69
2023-05-24T03:23:54.054Z,12.70
2023-05-24T03:26:24.034Z,12.74
2023-05-24T03:28:54.459Z,12.75
2023-05-24T03:31:28.830Z,12.76
2023-05-24T03:33:57.406Z,12.76
2023-05-24T03:36:29.249Z,12.78
2023-05-24T03:38:58.576Z,12.76
2023-05-24T03:41:29.253Z,12.77
2023-05-24T03:44:01.090Z,12.76
2023-05-24T03:46:31.350Z,12.75
2023-05-24T03:48:59.698Z,12.72
2023-05-24T03:51:29.877Z,12.71
2023-05-24T03:53:58.312Z,12.70
2023-05-24T03:56:30.512Z,12.68
2023-05-24T03:59:00.892Z,12.67
2023-05-24T04:01:34.287Z,12.67
2023-05-24T04:04:03.735Z,12.67
2023-05-24T04:06:32.360Z,12.68
2023-05-24T04:09:03.020Z,12.69
2023-05-24T04:11:33.472Z,12.69
2023-05-24T04:14:01.707Z,12.68
2023-05-24T04:16:34.462Z,12.68
2023-05-24T04:19:06.626Z,12.68
2023-05-24T04:21:36.873Z,12.67
2023-05-24T04:24:06.051Z,12.67
2023-05-24T04:26:37.785Z,12.67
2023-05-24T04:29:07.889Z,12.64
2023-05-24T04:31:36.880Z,12.63
2023-05-24T04:34:08.014Z,12.62
2023-05-24T04:36:37.140Z,12.58
2023-05-24T04:39:06.147Z,12.49
2023-05-24T04:41:37.404Z,12.49
2023-05-24T04:44:07.607Z,12.49
2023-05-24T04:46:37.479Z,12.52
2023-05-24T04:49:08.499Z,12.52
2023-05-24T04:51:41.666Z,12.57
2023-05-24T04:54:10.250Z,12.62
2023-05-24T04:56:40.319Z,12.69
2023-05-24T04:59:09.994Z,12.73
2023-05-24T05:01:38.422Z,12.77
2023-05-24T05:04:07.469Z,12.79
2023-05-24T05:06:38.883Z,12.81
2023-05-24T05:09:09.564Z,12.84
2023-05-24T05:11:40.058Z,12.87
2023-05-24T05:14:09.859Z,12.90
2023-05-24T05:16:39.094Z,13.01
2023-05-24T05:19:07.534Z,13.06
2023-05-24T05:21:36.928Z,13.12
2023-05-24T05:24:05.386Z,13.16
2023-05-24T05:26:33.707Z,13.24
2023-05-24T05:29:03.430Z,13.31
2023-05-24T05:31:32.150Z,13.39
2023-05-24T05:34:00.484Z,13.46
2023-05-24T05:36:28.784Z,13.55
2023-05-24T05:38:57.245Z,13.61
2023-05-24T05:41:25.712Z,13.67
2023-05-24T05:43:54.054Z,13.75
2023-05-24T05:46:23.819Z,13.88
2023-05-24T05:48:52.169Z,13.97
2023-05-24T05:51:20.513Z,14.08
2023-05-24T05:53:48.896Z,14.30
2023-05-24T05:56:17.831Z,14.59
2023-05-24T05:58:46.200Z,14.87
2023-05-24T06:01:14.464Z,15.25
2023-05-24T06:03:44.342Z,15.50
2023-05-24T06:06:12.909Z,15.72
2023-05-24T06:08:41.969Z,15.88
2023-05-24T06:11:10.270Z,16.06
2023-05-24T06:13:38.731Z,16.37
2023-05-24T06:16:08.664Z,16.59
2023-05-24T06:18:37.807Z,16.89
2023-05-24T06:21:10.644Z,17.10
2023-05-24T06:23:39.069Z,17.24
2023-05-24T06:26:08.999Z,17.38
2023-05-24T06:28:37.587Z,17.55
2023-05-24T06:31:06.218Z,17.58
2023-05-24T06:33:36.357Z,17.60
2023-05-24T06:36:07.859Z,17.70
2023-05-24T06:38:36.655Z,17.88
2023-05-24T06:41:05.132Z,18.02
2023-05-24T06:43:33.571Z,18.14
2023-05-24T06:46:01.863Z,18.54
2023-05-24T06:48:30.632Z,19.07
2023-05-24T06:50:59.012Z,19.40
2023-05-24T06:53:28.883Z,19.49
2023-05-24T06:55:57.800Z,19.60
2023-05-24T06:58:26.333Z,19.86
2023-05-24T07:00:54.757Z,20.23
2023-05-24T07:03:23.568Z,20.67
2023-05-24T07:05:51.814Z,20.94
2023-05-24T07:08:20.200Z,21.20
2023-05-24T07:10:50.004Z,21.42
2023-05-24T07:13:18.320Z,21.58
2023-05-24T07:15:47.563Z,21.56
2023-05-24T07:18:16.086Z,21.49
2023-05-24T07:20:44.660Z,21.50
2023-05-24T07:23:13.414Z,21.82
2023-05-24T07:25:41.712Z,22.30
2023-05-24T07:28:11.674Z,22.71
2023-05-24T07:30:40.059Z,22.69
2023-05-24T07:33:08.723Z,22.62
2023-05-24T07:35:37.165Z,22.63
2023-05-24T07:38:05.909Z,22.45
2023-05-24T07:40:34.272Z,22.52
2023-05-24T07:43:04.055Z,22.27
2023-05-24T07:45:34.244Z,22.55
2023-05-24T07:48:02.733Z,22.82
2023-05-24T07:50:31.223Z,22.75
2023-05-24T07:52:59.510Z,22.41
2023-05-24T07:55:28.558Z,22.38
2023-05-24T07:57:56.897Z,22.78
2023-05-24T08:00:25.519Z,23.44
2023-05-24T08:02:55.485Z,23.56
2023-05-24T08:05:24.081Z,23.53
2023-05-24T08:07:52.509Z,23.45
2023-05-24T08:10:21.985Z,23.37
2023-05-24T08:12:51.709Z,23.57
2023-05-24T08:15:20.037Z,23.77
2023-05-24T08:17:48.354Z,24.06
2023-05-24T08:20:18.359Z,24.32
2023-05-24T08:22:48.526Z,24.82
2023-05-24T08:25:17.239Z,24.87
2023-05-24T08:27:45.923Z,25.06
2023-05-24T08:30:15.359Z,25.27
2023-05-24T08:32:43.948Z,25.04
2023-05-24T08:35:20.839Z,25.08
2023-05-24T08:37:51.345Z,25.05
2023-05-24T08:40:20.017Z,25.31
2023-05-24T08:42:51.176Z,25.70
2023-05-24T08:45:20.475Z,25.83
2023-05-24T08:47:51.425Z,25.83
2023-05-24T08:50:20.755Z,25.91
2023-05-24T08:52:51.179Z,26.25
2023-05-24T08:55:20.156Z,26.22
2023-05-24T08:57:49.119Z,26.16
2023-05-24T09:00:19.526Z,25.93
2023-05-24T09:02:48.449Z,25.99
2023-05-24T09:05:18.050Z,26.18
2023-05-24T09:07:47.530Z,25.90
2023-05-24T09:10:18.558Z,25.12
2023-05-24T09:12:50.944Z,24.58
2023-05-24T09:15:19.353Z,24.30
2023-05-24T09:17:48.709Z,24.67
2023-05-24T09:20:17.300Z,24.69
2023-05-24T09:22:50.307Z,24.79
2023-05-24T09:25:21.707Z,24.75
2023-05-24T09:28:02.201Z,24.82
2023-05-24T10:31:53.884Z,22.77
2023-05-24T10:34:22.738Z,22.39
2023-05-24T10:36:51.553Z,22.61
2023-05-24T10:39:22.838Z,22.74
2023-05-24T10:41:51.354Z,22.73
2023-05-24T12:26:02.918Z,24.15
2023-05-24T12:45:16.769Z,24.36
2023-05-24T14:32:57.000Z,23.98
2023-05-24T14:36:11.841Z,23.94
2023-05-24T14:38:40.629Z,23.92
2023-05-24T14:41:30.309Z,23.89
2023-05-24T14:49:36.641Z,23.81
2023-05-24T15:00:28.699Z,23.89
2023-05-24T15:08:38.009Z,24.04
2023-05-24T15:11:41.424Z,23.86
2023-05-24T15:30:58.459Z,23.65
2023-05-24T15:31:01.061Z,23.74
2023-05-24T15:34:25.409Z,23.52
2023-05-24T15:41:51.211Z,23.60
2023-05-24T15:44:12.959Z,23.51
2023-05-24T15:52:56.036Z,23.26
2023-05-24T15:59:57.373Z,23.04
2023-05-24T16:07:20.093Z,22.84
2023-05-24T16:12:03.050Z,22.79
2023-05-24T16:15:22.905Z,22.79
2023-05-24T16:22:21.325Z,22.71
2023-05-24T16:25:03.145Z,22.64
2023-05-24T16:32:38.001Z,22.46
2023-05-24T16:38:28.311Z,22.27
2023-05-24T16:39:04.822Z,22.22
2023-05-24T16:41:42.611Z,22.13
2023-05-24T16:44:17.701Z,22.00
2023-05-24T16:46:48.174Z,22.00
2023-05-24T16:49:17.896Z,21.95
2023-05-24T16:51:52.581Z,21.90
2023-05-24T16:54:22.972Z,21.90
2023-05-24T16:56:54.021Z,21.98
2023-05-24T16:59:24.882Z,21.94
2023-05-24T17:01:54.789Z,21.83
2023-05-24T17:04:29.376Z,21.64
2023-05-24T17:07:01.371Z,21.62
2023-05-24T17:09:33.343Z,21.57
2023-05-24T17:12:05.184Z,21.47
2023-05-24T17:15:38.312Z,21.39
2023-05-24T17:18:12.262Z,21.32
2023-05-24T17:21:15.806Z,21.24
2023-05-24T17:27:15.419Z,21.21
2023-05-24T17:29:52.986Z,21.13
2023-05-24T17:36:06.824Z,21.05
2023-05-24T17:38:59.150Z,21.08
2023-05-24T17:41:54.140Z,20.97
2023-05-24T17:47:04.921Z,20.63
2023-05-24T17:49:33.277Z,20.57
2023-05-24T17:52:07.309Z,20.44
2023-05-24T17:54:37.588Z,20.40
2023-05-24T17:57:21.483Z,20.27
2023-05-24T18:00:07.826Z,20.19
2023-05-24T18:02:36.340Z,20.10
2023-05-24T18:05:04.936Z,20.08
2023-05-24T18:07:34.718Z,20.08
2023-05-24T18:10:03.112Z,19.96
2023-05-24T18:12:31.885Z,19.85
2023-05-24T18:15:00.243Z,19.72
2023-05-24T18:17:28.698Z,19.60
2023-05-24T18:19:57.054Z,19.54
2023-05-24T18:22:25.471Z,19.50
2023-05-24T18:24:55.222Z,19.48
2023-05-24T18:27:26.734Z,19.42
2023-05-24T18:29:55.272Z,19.39
2023-05-24T18:32:23.638Z,19.31
2023-05-24T18:34:52.004Z,19.15
2023-05-24T18:37:23.126Z,18.99
2023-05-24T18:39:51.511Z,18.86
2023-05-24T18:42:21.154Z,18.77
2023-05-24T18:44:49.413Z,18.71
2023-05-24T18:47:17.777Z,18.65
2023-05-24T18:49:46.290Z,18.55
2023-05-24T18:52:14.823Z,18.48
2023-05-24T18:54:43.268Z,18.45
2023-05-24T18:57:11.608Z,18.44
2023-05-24T18:59:41.252Z,18.40
2023-05-24T19:02:09.640Z,18.34
2023-05-24T19:04:37.991Z,18.28
2023-05-24T19:07:07.041Z,18.20
2023-05-24T19:09:36.692Z,18.12
2023-05-24T19:12:05.686Z,17.99
2023-05-24T19:14:33.962Z,17.86
2023-05-24T19:17:06.594Z,17.83
2023-05-24T19:19:34.903Z,17.76
2023-05-24T19:22:04.781Z,17.68
2023-05-24T19:24:33.019Z,17.62
2023-05-24T19:27:01.812Z,17.57
2023-05-24T19:29:29.917Z,17.47
2023-05-24T19:31:58.215Z,17.37
2023-05-24T19:34:28.790Z,17.26
2023-05-24T19:36:57.937Z,17.17
2023-05-24T19:39:26.328Z,17.05
2023-05-24T19:41:54.679Z,17.02
2023-05-24T19:44:23.004Z,16.96
2023-05-24T19:46:51.385Z,16.89
2023-05-24T19:49:19.727Z,16.82
2023-05-24T19:51:49.523Z,16.78
2023-05-24T19:54:17.912Z,16.73
2023-05-24T19:56:50.226Z,16.66
2023-05-24T19:59:21.832Z,16.41
2023-05-24T20:01:50.393Z,16.45
2023-05-24T20:04:20.837Z,16.40
2023-05-24T20:06:52.186Z,16.37
2023-05-24T20:09:20.512Z,16.34
2023-05-24T20:11:50.105Z,16.31
2023-05-24T20:14:19.285Z,16.24
2023-05-24T20:16:50.418Z,16.17
2023-05-24T20:19:18.862Z,16.12
2023-05-24T20:21:48.408Z,16.08
2023-05-24T20:24:28.623Z,16.05
2023-05-24T20:26:58.837Z,15.97
2023-05-24T20:29:28.512Z,15.94
2023-05-24T20:31:57.016Z,15.93
2023-05-24T20:34:27.285Z,15.91
2023-05-24T20:37:00.241Z,15.82
2023-05-24T20:39:32.631Z,15.79
2023-05-24T20:42:01.045Z,15.62
2023-05-24T20:44:29.483Z,15.70
2023-05-24T20:46:57.897Z,15.70
2023-05-24T20:49:26.404Z,15.68
2023-05-24T20:51:56.777Z,15.67
2023-05-24T20:54:25.090Z,15.66
2023-05-24T20:56:54.904Z,15.62
2023-05-24T20:59:23.359Z,15.59
2023-05-24T21:01:51.713Z,15.55
2023-05-24T21:04:22.309Z,15.52
2023-05-24T21:06:56.511Z,15.51
2023-05-24T21:09:25.208Z,15.46
2023-05-24T21:11:55.297Z,15.47
2023-05-24T21:14:23.686Z,15.43
2023-05-24T21:16:52.165Z,15.41
2023-05-24T21:19:20.867Z,15.41
2023-05-24T21:21:52.372Z,15.40
2023-05-24T21:24:24.287Z,15.37
2023-05-24T21:26:52.728Z,15.31
2023-05-24T21:29:22.576Z,15.31
2023-05-24T21:31:50.907Z,15.31
2023-05-24T21:34:19.365Z,15.29
2023-05-24T21:36:50.363Z,15.31
2023-05-24T21:39:21.835Z,15.29
2023-05-24T21:41:50.284Z,15.29
2023-05-24T21:44:19.587Z,15.29
2023-05-24T21:46:49.540Z,15.29
2023-05-24T21:49:19.063Z,15.28
2023-05-24T21:51:47.342Z,15.26
2023-05-24T21:54:20.038Z,15.23
2023-05-24T21:56:50.775Z,15.25
2023-05-24T21:59:21.486Z,15.24
2023-05-24T22:01:52.488Z,15.24
2023-05-24T22:04:20.980Z,15.19
2023-05-24T22:06:49.276Z,15.17
2023-05-24T22:09:17.755Z,15.17
2023-05-24T22:11:46.158Z,15.17
2023-05-24T22:14:14.585Z,15.14
2023-05-24T22:16:43.046Z,15.10
2023-05-24T22:19:16.325Z,15.05
2023-05-24T22:21:46.016Z,15.02
2023-05-24T22:24:14.329Z,15.03
2023-05-24T22:26:47.182Z,15.03
2023-05-24T22:29:15.922Z,15.02
2023-05-24T22:31:44.284Z,15.01
2023-05-24T22:34:15.043Z,15.00
2023-05-24T22:36:43.391Z,14.98
2023-05-24T22:39:11.848Z,14.98
2023-05-24T22:41:40.206Z,14.97
2023-05-24T22:44:08.605Z,14.98
2023-05-24T22:46:37.206Z,14.98
2023-05-24T22:49:06.056Z,14.95
2023-05-24T22:51:37.828Z,14.94
2023-05-24T22:54:06.685Z,14.89
2023-05-24T22:56:36.188Z,14.89
2023-05-24T22:59:04.828Z,14.86
2023-05-24T23:01:33.904Z,14.85
2023-05-24T23:04:18.931Z,14.82
2023-05-24T23:06:49.368Z,14.78
2023-05-24T23:09:35.920Z,14.73
2023-05-24T23:12:08.508Z,14.68
2023-05-24T23:14:39.344Z,14.67
2023-05-24T23:17:10.476Z,14.66
2023-05-24T23:19:42.613Z,14.65
2023-05-24T23:22:13.244Z,14.66
2023-05-24T23:24:42.951Z,14.65
2023-05-24T23:27:15.616Z,14.64
2023-05-24T23:29:43.858Z,14.63
2023-05-24T23:32:14.464Z,14.62
2023-05-24T23:34:43.374Z,14.62
2023-05-24T23:37:13.655Z,14.61
2023-05-24T23:39:42.172Z,14.59
2023-05-24T23:42:10.502Z,14.57
2023-05-24T23:44:38.925Z,14.58
2023-05-24T23:47:09.996Z,14.57
2023-05-24T23:49:38.804Z,14.56
2023-05-24T23:52:08.144Z,14.57
2023-05-24T23:54:39.651Z,14.55
2023-05-24T23:57:09.799Z,14.51
2023-05-24T23:59:38.541Z,14.52
